sensor_id;sensor_type;location;lat;lon;timestamp;P1;durP1;ratioP1;P2;durP2;ratioP2
76699;SDS011;70081;44.524;0.194;2023-05-13T00:04:03;9.50;;;6.40;;
76699;SDS011;70081;44.524;0.194;2023-05-13T00:09:37;8.00;;;5.23;;
76699;SDS011;70081;44.524;0.194;2023-05-13T00:15:09;9.77;;;5.80;;
76699;SDS011;70081;44.524;0.194;2023-05-13T00:20:41;7.83;;;5.40;;
76699;SDS011;70081;44.524;0.194;2023-05-13T00:26:12;7.97;;;4.53;;
76699;SDS011;70081;44.524;0.194;2023-05-13T00:31:46;9.93;;;6.83;;
76699;SDS011;70081;44.524;0.194;2023-05-13T00:37:19;9.40;;;5.60;;
76699;SDS011;70081;44.524;0.194;2023-05-13T00:42:52;7.07;;;5.77;;
76699;SDS011;70081;44.524;0.194;2023-05-13T00:48:25;8.93;;;6.40;;
76699;SDS011;70081;44.524;0.194;2023-05-13T00:53:58;10.03;;;5.40;;
76699;SDS011;70081;44.524;0.194;2023-05-13T00:59:30;8.53;;;4.57;;
76699;SDS011;70081;44.524;0.194;2023-05-13T01:05:06;6.97;;;4.70;;
76699;SDS011;70081;44.524;0.194;2023-05-13T01:10:38;8.27;;;4.23;;
76699;SDS011;70081;44.524;0.194;2023-05-13T01:16:11;4.60;;;3.43;;
76699;SDS011;70081;44.524;0.194;2023-05-13T01:21:45;6.30;;;3.90;;
76699;SDS011;70081;44.524;0.194;2023-05-13T01:27:16;8.77;;;5.03;;
76699;SDS011;70081;44.524;0.194;2023-05-13T01:32:48;8.00;;;5.43;;
76699;SDS011;70081;44.524;0.194;2023-05-13T01:38:20;11.63;;;6.07;;
76699;SDS011;70081;44.524;0.194;2023-05-13T01:43:53;10.20;;;5.07;;
76699;SDS011;70081;44.524;0.194;2023-05-13T01:49:26;11.70;;;5.50;;
76699;SDS011;70081;44.524;0.194;2023-05-13T01:54:59;12.93;;;5.50;;
76699;SDS011;70081;44.524;0.194;2023-05-13T02:00:32;8.73;;;6.17;;
76699;SDS011;70081;44.524;0.194;2023-05-13T02:06:04;17.83;;;6.60;;
76699;SDS011;70081;44.524;0.194;2023-05-13T02:11:37;11.03;;;6.43;;
76699;SDS011;70081;44.524;0.194;2023-05-13T02:17:10;8.43;;;6.50;;
76699;SDS011;70081;44.524;0.194;2023-05-13T02:22:44;8.27;;;6.17;;
76699;SDS011;70081;44.524;0.194;2023-05-13T02:28:17;7.67;;;5.40;;
76699;SDS011;70081;44.524;0.194;2023-05-13T02:33:50;12.63;;;5.37;;
76699;SDS011;70081;44.524;0.194;2023-05-13T02:39:24;9.43;;;6.40;;
76699;SDS011;70081;44.524;0.194;2023-05-13T02:44:58;8.17;;;6.10;;
76699;SDS011;70081;44.524;0.194;2023-05-13T02:50:29;6.53;;;4.67;;
76699;SDS011;70081;44.524;0.194;2023-05-13T02:56:02;9.13;;;4.93;;
76699;SDS011;70081;44.524;0.194;2023-05-13T03:01:34;6.40;;;4.43;;
76699;SDS011;70081;44.524;0.194;2023-05-13T03:07:08;6.47;;;4.83;;
76699;SDS011;70081;44.524;0.194;2023-05-13T03:12:42;9.37;;;4.70;;
76699;SDS011;70081;44.524;0.194;2023-05-13T03:18:13;7.00;;;4.77;;
76699;SDS011;70081;44.524;0.194;2023-05-13T03:23:46;5.50;;;3.47;;
76699;SDS011;70081;44.524;0.194;2023-05-13T03:29:19;5.27;;;3.97;;
76699;SDS011;70081;44.524;0.194;2023-05-13T03:34:51;7.03;;;4.23;;
76699;SDS011;70081;44.524;0.194;2023-05-13T03:40:23;7.17;;;3.37;;
76699;SDS011;70081;44.524;0.194;2023-05-13T03:45:56;7.93;;;4.60;;
76699;SDS011;70081;44.524;0.194;2023-05-13T03:51:28;6.40;;;4.57;;
76699;SDS011;70081;44.524;0.194;2023-05-13T03:57:01;26.23;;;6.50;;
76699;SDS011;70081;44.524;0.194;2023-05-13T04:02:34;27.03;;;6.13;;
76699;SDS011;70081;44.524;0.194;2023-05-13T04:08:06;89.50;;;6.80;;
76699;SDS011;70081;44.524;0.194;2023-05-13T04:13:40;5.90;;;4.57;;
76699;SDS011;70081;44.524;0.194;2023-05-13T04:19:12;11.10;;;4.57;;
76699;SDS011;70081;44.524;0.194;2023-05-13T04:24:45;37.77;;;4.00;;
76699;SDS011;70081;44.524;0.194;2023-05-13T04:30:17;33.93;;;3.00;;
76699;SDS011;70081;44.524;0.194;2023-05-13T04:35:51;21.23;;;3.33;;
76699;SDS011;70081;44.524;0.194;2023-05-13T04:41:25;34.20;;;5.93;;
76699;SDS011;70081;44.524;0.194;2023-05-13T04:46:58;14.50;;;4.00;;
76699;SDS011;70081;44.524;0.194;2023-05-13T04:52:30;5.53;;;4.37;;
76699;SDS011;70081;44.524;0.194;2023-05-13T04:58:03;8.33;;;3.57;;
76699;SDS011;70081;44.524;0.194;2023-05-13T05:03:36;9.70;;;3.63;;
76699;SDS011;70081;44.524;0.194;2023-05-13T05:09:09;7.53;;;4.60;;
76699;SDS011;70081;44.524;0.194;2023-05-13T05:14:41;9.00;;;3.73;;
76699;SDS011;70081;44.524;0.194;2023-05-13T05:20:15;119.70;;;7.53;;
76699;SDS011;70081;44.524;0.194;2023-05-13T05:25:47;64.80;;;5.30;;
76699;SDS011;70081;44.524;0.194;2023-05-13T05:31:20;41.00;;;3.53;;
76699;SDS011;70081;44.524;0.194;2023-05-13T05:36:54;17.83;;;2.87;;
76699;SDS011;70081;44.524;0.194;2023-05-13T05:42:26;5.40;;;3.10;;
76699;SDS011;70081;44.524;0.194;2023-05-13T05:47:58;14.43;;;3.17;;
76699;SDS011;70081;44.524;0.194;2023-05-13T05:53:32;35.63;;;3.07;;
76699;SDS011;70081;44.524;0.194;2023-05-13T05:59:04;7.10;;;3.80;;
76699;SDS011;70081;44.524;0.194;2023-05-13T06:04:37;6.93;;;4.10;;
76699;SDS011;70081;44.524;0.194;2023-05-13T06:10:09;4.83;;;3.30;;
76699;SDS011;70081;44.524;0.194;2023-05-13T06:15:42;3.80;;;3.40;;
76699;SDS011;70081;44.524;0.194;2023-05-13T06:21:14;5.83;;;4.20;;
76699;SDS011;70081;44.524;0.194;2023-05-13T06:26:47;6.17;;;4.50;;
76699;SDS011;70081;44.524;0.194;2023-05-13T06:32:19;5.10;;;4.37;;
76699;SDS011;70081;44.524;0.194;2023-05-13T06:37:53;7.90;;;3.77;;
76699;SDS011;70081;44.524;0.194;2023-05-13T06:43:26;6.17;;;4.50;;
76699;SDS011;70081;44.524;0.194;2023-05-13T06:49:00;6.57;;;4.57;;
76699;SDS011;70081;44.524;0.194;2023-05-13T06:54:33;5.60;;;4.23;;
76699;SDS011;70081;44.524;0.194;2023-05-13T07:00:05;5.57;;;4.77;;
76699;SDS011;70081;44.524;0.194;2023-05-13T07:05:37;4.90;;;3.90;;
76699;SDS011;70081;44.524;0.194;2023-05-13T07:11:10;5.70;;;3.93;;
76699;SDS011;70081;44.524;0.194;2023-05-13T07:16:43;6.03;;;4.00;;
76699;SDS011;70081;44.524;0.194;2023-05-13T07:22:17;6.77;;;4.60;;
76699;SDS011;70081;44.524;0.194;2023-05-13T07:27:49;5.63;;;4.50;;
76699;SDS011;70081;44.524;0.194;2023-05-13T07:33:21;6.17;;;5.10;;
76699;SDS011;70081;44.524;0.194;2023-05-13T07:38:53;8.73;;;5.53;;
76699;SDS011;70081;44.524;0.194;2023-05-13T07:44:26;8.33;;;5.50;;
76699;SDS011;70081;44.524;0.194;2023-05-13T07:49:59;10.60;;;4.93;;
76699;SDS011;70081;44.524;0.194;2023-05-13T07:55:32;9.53;;;5.07;;
76699;SDS011;70081;44.524;0.194;2023-05-13T08:01:05;8.47;;;5.20;;
76699;SDS011;70081;44.524;0.194;2023-05-13T08:06:38;6.93;;;4.23;;
76699;SDS011;70081;44.524;0.194;2023-05-13T08:12:11;6.40;;;4.10;;
76699;SDS011;70081;44.524;0.194;2023-05-13T08:17:44;5.57;;;4.37;;
76699;SDS011;70081;44.524;0.194;2023-05-13T08:23:17;6.23;;;4.10;;
76699;SDS011;70081;44.524;0.194;2023-05-13T08:28:50;9.43;;;3.57;;
76699;SDS011;70081;44.524;0.194;2023-05-13T08:34:23;6.17;;;3.67;;
76699;SDS011;70081;44.524;0.194;2023-05-13T08:39:56;5.97;;;2.90;;
76699;SDS011;70081;44.524;0.194;2023-05-13T08:45:28;5.03;;;2.33;;
76699;SDS011;70081;44.524;0.194;2023-05-13T08:51:01;2.70;;;2.23;;
76699;SDS011;70081;44.524;0.194;2023-05-13T08:56:35;3.57;;;2.10;;
76699;SDS011;70081;44.524;0.194;2023-05-13T09:02:07;3.10;;;2.10;;
76699;SDS011;70081;44.524;0.194;2023-05-13T09:07:40;2.77;;;1.50;;
76699;SDS011;70081;44.524;0.194;2023-05-13T09:13:13;4.30;;;2.10;;
76699;SDS011;70081;44.524;0.194;2023-05-13T09:18:47;3.20;;;1.80;;
76699;SDS011;70081;44.524;0.194;2023-05-13T09:24:20;2.90;;;1.83;;
76699;SDS011;70081;44.524;0.194;2023-05-13T09:29:57;3.17;;;1.70;;
76699;SDS011;70081;44.524;0.194;2023-05-13T09:35:25;2.93;;;1.43;;
76699;SDS011;70081;44.524;0.194;2023-05-13T09:40:58;3.43;;;2.00;;
76699;SDS011;70081;44.524;0.194;2023-05-13T09:46:30;3.23;;;1.83;;
76699;SDS011;70081;44.524;0.194;2023-05-13T09:52:03;2.73;;;1.60;;
76699;SDS011;70081;44.524;0.194;2023-05-13T09:57:35;2.17;;;1.13;;
76699;SDS011;70081;44.524;0.194;2023-05-13T10:03:07;2.90;;;1.27;;
76699;SDS011;70081;44.524;0.194;2023-05-13T10:08:39;2.87;;;0.97;;
76699;SDS011;70081;44.524;0.194;2023-05-13T10:14:11;3.53;;;1.43;;
76699;SDS011;70081;44.524;0.194;2023-05-13T10:19:44;1.97;;;1.30;;
76699;SDS011;70081;44.524;0.194;2023-05-13T10:25:17;2.60;;;1.37;;
76699;SDS011;70081;44.524;0.194;2023-05-13T10:30:49;2.13;;;1.30;;
76699;SDS011;70081;44.524;0.194;2023-05-13T10:36:33;1.90;;;1.20;;
76699;SDS011;70081;44.524;0.194;2023-05-13T10:42:05;1.80;;;1.10;;
76699;SDS011;70081;44.524;0.194;2023-05-13T10:47:26;0.70;;;0.70;;
76699;SDS011;70081;44.524;0.194;2023-05-13T10:52:57;1.40;;;0.93;;
76699;SDS011;70081;44.524;0.194;2023-05-13T10:58:31;1.63;;;0.93;;
76699;SDS011;70081;44.524;0.194;2023-05-13T11:09:36;2.10;;;0.90;;
76699;SDS011;70081;44.524;0.194;2023-05-13T11:20:39;1.13;;;1.00;;
76699;SDS011;70081;44.524;0.194;2023-05-13T11:26:14;1.93;;;1.10;;
76699;SDS011;70081;44.524;0.194;2023-05-13T11:31:46;1.23;;;1.03;;
76699;SDS011;70081;44.524;0.194;2023-05-13T11:37:18;1.23;;;0.90;;
76699;SDS011;70081;44.524;0.194;2023-05-13T11:48:25;1.27;;;0.90;;
76699;SDS011;70081;44.524;0.194;2023-05-13T11:54:01;1.47;;;1.03;;
76699;SDS011;70081;44.524;0.194;2023-05-13T11:59:28;1.50;;;0.80;;
76699;SDS011;70081;44.524;0.194;2023-05-13T12:05:01;1.40;;;0.80;;
76699;SDS011;70081;44.524;0.194;2023-05-13T12:10:33;0.77;;;0.77;;
76699;SDS011;70081;44.524;0.194;2023-05-13T12:16:07;1.60;;;1.00;;
76699;SDS011;70081;44.524;0.194;2023-05-13T12:21:40;1.20;;;0.90;;
76699;SDS011;70081;44.524;0.194;2023-05-13T12:27:13;2.77;;;0.80;;
76699;SDS011;70081;44.524;0.194;2023-05-13T12:32:47;3.60;;;1.10;;
76699;SDS011;70081;44.524;0.194;2023-05-13T12:38:19;1.53;;;0.80;;
76699;SDS011;70081;44.524;0.194;2023-05-13T12:43:55;4.70;;;0.80;;
76699;SDS011;70081;44.524;0.194;2023-05-13T12:49:24;2.77;;;0.70;;
76699;SDS011;70081;44.524;0.194;2023-05-13T12:54:57;1.60;;;0.90;;
76699;SDS011;70081;44.524;0.194;2023-05-13T13:00:29;1.30;;;0.70;;
76699;SDS011;70081;44.524;0.194;2023-05-13T13:06:03;0.83;;;0.83;;
76699;SDS011;70081;44.524;0.194;2023-05-13T13:11:35;0.93;;;0.87;;
76699;SDS011;70081;44.524;0.194;2023-05-13T13:17:06;0.73;;;0.70;;
76699;SDS011;70081;44.524;0.194;2023-05-13T13:22:39;2.00;;;1.10;;
76699;SDS011;70081;44.524;0.194;2023-05-13T13:28:12;2.63;;;1.00;;
76699;SDS011;70081;44.524;0.194;2023-05-13T13:33:45;1.10;;;1.00;;
76699;SDS011;70081;44.524;0.194;2023-05-13T13:39:18;1.70;;;0.90;;
76699;SDS011;70081;44.524;0.194;2023-05-13T13:44:50;1.90;;;1.00;;
76699;SDS011;70081;44.524;0.194;2023-05-13T13:50:24;1.57;;;0.90;;
76699;SDS011;70081;44.524;0.194;2023-05-13T13:55:56;1.20;;;0.90;;
76699;SDS011;70081;44.524;0.194;2023-05-13T14:01:30;1.03;;;0.90;;
76699;SDS011;70081;44.524;0.194;2023-05-13T14:07:03;3.13;;;0.97;;
76699;SDS011;70081;44.524;0.194;2023-05-13T14:12:36;1.17;;;1.00;;
76699;SDS011;70081;44.524;0.194;2023-05-13T14:18:09;1.33;;;0.90;;
76699;SDS011;70081;44.524;0.194;2023-05-13T14:23:42;0.70;;;0.70;;
76699;SDS011;70081;44.524;0.194;2023-05-13T14:29:15;1.33;;;0.80;;
76699;SDS011;70081;44.524;0.194;2023-05-13T14:34:47;0.60;;;0.60;;
76699;SDS011;70081;44.524;0.194;2023-05-13T14:40:19;0.83;;;0.70;;
76699;SDS011;70081;44.524;0.194;2023-05-13T14:45:52;1.00;;;0.70;;
76699;SDS011;70081;44.524;0.194;2023-05-13T14:51:24;2.07;;;0.73;;
76699;SDS011;70081;44.524;0.194;2023-05-13T14:56:57;1.80;;;0.90;;
76699;SDS011;70081;44.524;0.194;2023-05-13T15:02:31;0.80;;;0.70;;
76699;SDS011;70081;44.524;0.194;2023-05-13T15:08:03;1.40;;;0.83;;
76699;SDS011;70081;44.524;0.194;2023-05-13T15:13:36;1.00;;;0.80;;
76699;SDS011;70081;44.524;0.194;2023-05-13T15:19:09;0.60;;;0.60;;
76699;SDS011;70081;44.524;0.194;2023-05-13T15:24:42;0.97;;;0.73;;
76699;SDS011;70081;44.524;0.194;2023-05-13T15:30:14;0.60;;;0.60;;
76699;SDS011;70081;44.524;0.194;2023-05-13T15:35:47;1.03;;;0.73;;
76699;SDS011;70081;44.524;0.194;2023-05-13T15:41:21;0.70;;;0.70;;
76699;SDS011;70081;44.524;0.194;2023-05-13T15:46:53;0.63;;;0.63;;
76699;SDS011;70081;44.524;0.194;2023-05-13T15:52:25;2.67;;;0.90;;
76699;SDS011;70081;44.524;0.194;2023-05-13T15:57:58;2.00;;;0.70;;
76699;SDS011;70081;44.524;0.194;2023-05-13T16:03:30;0.80;;;0.80;;
76699;SDS011;70081;44.524;0.194;2023-05-13T16:09:03;1.30;;;0.80;;
76699;SDS011;70081;44.524;0.194;2023-05-13T16:14:35;1.33;;;0.67;;
76699;SDS011;70081;44.524;0.194;2023-05-13T16:20:07;1.50;;;0.83;;
76699;SDS011;70081;44.524;0.194;2023-05-13T16:25:42;0.60;;;0.60;;
76699;SDS011;70081;44.524;0.194;2023-05-13T16:31:14;3.40;;;0.70;;
76699;SDS011;70081;44.524;0.194;2023-05-13T16:36:47;0.70;;;0.70;;
76699;SDS011;70081;44.524;0.194;2023-05-13T16:42:20;1.43;;;0.90;;
76699;SDS011;70081;44.524;0.194;2023-05-13T16:47:52;0.60;;;0.60;;
76699;SDS011;70081;44.524;0.194;2023-05-13T16:53:25;0.60;;;0.60;;
76699;SDS011;70081;44.524;0.194;2023-05-13T16:58:56;0.77;;;0.77;;
76699;SDS011;70081;44.524;0.194;2023-05-13T17:04:29;0.60;;;0.53;;
76699;SDS011;70081;44.524;0.194;2023-05-13T17:10:02;1.03;;;0.70;;
76699;SDS011;70081;44.524;0.194;2023-05-13T17:15:34;0.60;;;0.60;;
76699;SDS011;70081;44.524;0.194;2023-05-13T17:21:06;1.67;;;0.80;;
76699;SDS011;70081;44.524;0.194;2023-05-13T17:26:38;0.87;;;0.60;;
76699;SDS011;70081;44.524;0.194;2023-05-13T17:32:11;1.80;;;0.70;;
76699;SDS011;70081;44.524;0.194;2023-05-13T17:37:44;2.17;;;0.70;;
76699;SDS011;70081;44.524;0.194;2023-05-13T17:43:16;1.27;;;0.63;;
76699;SDS011;70081;44.524;0.194;2023-05-13T17:48:48;1.07;;;0.80;;
76699;SDS011;70081;44.524;0.194;2023-05-13T17:59:54;1.90;;;0.60;;
76699;SDS011;70081;44.524;0.194;2023-05-13T18:05:26;0.53;;;0.53;;
76699;SDS011;70081;44.524;0.194;2023-05-13T18:10:59;1.10;;;0.80;;
76699;SDS011;70081;44.524;0.194;2023-05-13T18:16:32;0.97;;;0.77;;
76699;SDS011;70081;44.524;0.194;2023-05-13T18:22:05;1.50;;;1.07;;
76699;SDS011;70081;44.524;0.194;2023-05-13T18:27:35;0.97;;;0.70;;
76699;SDS011;70081;44.524;0.194;2023-05-13T18:33:07;0.80;;;0.70;;
76699;SDS011;70081;44.524;0.194;2023-05-13T18:38:39;0.80;;;0.80;;
76699;SDS011;70081;44.524;0.194;2023-05-13T18:44:12;0.77;;;0.77;;
76699;SDS011;70081;44.524;0.194;2023-05-13T18:49:45;1.57;;;0.97;;
76699;SDS011;70081;44.524;0.194;2023-05-13T18:55:17;1.03;;;0.90;;
76699;SDS011;70081;44.524;0.194;2023-05-13T19:00:52;0.67;;;0.67;;
76699;SDS011;70081;44.524;0.194;2023-05-13T19:06:24;0.70;;;0.70;;
76699;SDS011;70081;44.524;0.194;2023-05-13T19:11:58;1.13;;;0.80;;
76699;SDS011;70081;44.524;0.194;2023-05-13T19:17:31;0.93;;;0.93;;
76699;SDS011;70081;44.524;0.194;2023-05-13T19:23:02;0.60;;;0.60;;
76699;SDS011;70081;44.524;0.194;2023-05-13T19:28:35;1.70;;;0.80;;
76699;SDS011;70081;44.524;0.194;2023-05-13T19:34:07;0.60;;;0.60;;
76699;SDS011;70081;44.524;0.194;2023-05-13T19:39:40;0.73;;;0.70;;
76699;SDS011;70081;44.524;0.194;2023-05-13T19:45:12;1.20;;;1.10;;
76699;SDS011;70081;44.524;0.194;2023-05-13T19:50:44;1.13;;;0.90;;
76699;SDS011;70081;44.524;0.194;2023-05-13T19:56:16;0.77;;;0.77;;
76699;SDS011;70081;44.524;0.194;2023-05-13T20:01:49;0.80;;;0.80;;
76699;SDS011;70081;44.524;0.194;2023-05-13T20:07:21;2.33;;;1.00;;
76699;SDS011;70081;44.524;0.194;2023-05-13T20:12:54;1.47;;;1.17;;
76699;SDS011;70081;44.524;0.194;2023-05-13T20:18:26;1.40;;;1.30;;
76699;SDS011;70081;44.524;0.194;2023-05-13T20:23:58;1.33;;;0.93;;
76699;SDS011;70081;44.524;0.194;2023-05-13T20:29:32;2.93;;;0.93;;
76699;SDS011;70081;44.524;0.194;2023-05-13T20:35:03;2.70;;;1.33;;
76699;SDS011;70081;44.524;0.194;2023-05-13T20:40:35;2.37;;;1.30;;
76699;SDS011;70081;44.524;0.194;2023-05-13T20:46:08;2.47;;;1.10;;
76699;SDS011;70081;44.524;0.194;2023-05-13T20:51:41;2.07;;;1.30;;
76699;SDS011;70081;44.524;0.194;2023-05-13T20:57:13;2.50;;;1.60;;
76699;SDS011;70081;44.524;0.194;2023-05-13T21:02:45;2.13;;;1.13;;
76699;SDS011;70081;44.524;0.194;2023-05-13T21:08:16;1.83;;;1.30;;
76699;SDS011;70081;44.524;0.194;2023-05-13T21:13:50;1.80;;;1.20;;
76699;SDS011;70081;44.524;0.194;2023-05-13T21:19:23;2.13;;;1.40;;
76699;SDS011;70081;44.524;0.194;2023-05-13T21:24:56;2.03;;;1.83;;
76699;SDS011;70081;44.524;0.194;2023-05-13T21:30:31;2.83;;;1.50;;
76699;SDS011;70081;44.524;0.194;2023-05-13T21:36:01;3.17;;;1.60;;
76699;SDS011;70081;44.524;0.194;2023-05-13T21:41:34;2.70;;;2.03;;
76699;SDS011;70081;44.524;0.194;2023-05-13T21:47:06;2.53;;;1.90;;
76699;SDS011;70081;44.524;0.194;2023-05-13T21:52:39;2.17;;;1.80;;
76699;SDS011;70081;44.524;0.194;2023-05-13T21:58:12;2.80;;;1.73;;
76699;SDS011;70081;44.524;0.194;2023-05-13T22:03:44;4.10;;;1.93;;
76699;SDS011;70081;44.524;0.194;2023-05-13T22:09:18;2.30;;;1.77;;
76699;SDS011;70081;44.524;0.194;2023-05-13T22:14:50;1.57;;;1.47;;
76699;SDS011;70081;44.524;0.194;2023-05-13T22:20:23;2.07;;;1.67;;
76699;SDS011;70081;44.524;0.194;2023-05-13T22:25:55;2.87;;;1.97;;
76699;SDS011;70081;44.524;0.194;2023-05-13T22:31:27;2.90;;;2.20;;
76699;SDS011;70081;44.524;0.194;2023-05-13T22:37:00;3.07;;;2.43;;
76699;SDS011;70081;44.524;0.194;2023-05-13T22:42:32;2.97;;;2.63;;
76699;SDS011;70081;44.524;0.194;2023-05-13T22:48:05;3.67;;;2.70;;
76699;SDS011;70081;44.524;0.194;2023-05-13T22:53:36;4.17;;;2.80;;
76699;SDS011;70081;44.524;0.194;2023-05-13T22:59:08;3.53;;;2.30;;
76699;SDS011;70081;44.524;0.194;2023-05-13T23:04:41;3.27;;;2.50;;
76699;SDS011;70081;44.524;0.194;2023-05-13T23:10:13;4.07;;;2.87;;
76699;SDS011;70081;44.524;0.194;2023-05-13T23:15:46;5.70;;;3.37;;
76699;SDS011;70081;44.524;0.194;2023-05-13T23:21:20;4.83;;;3.50;;
76699;SDS011;70081;44.524;0.194;2023-05-13T23:26:51;5.13;;;3.63;;
76699;SDS011;70081;44.524;0.194;2023-05-13T23:32:24;4.40;;;3.40;;
76699;SDS011;70081;44.524;0.194;2023-05-13T23:37:55;6.10;;;4.13;;
76699;SDS011;70081;44.524;0.194;2023-05-13T23:43:28;6.00;;;4.03;;
76699;SDS011;70081;44.524;0.194;2023-05-13T23:49:01;6.17;;;3.80;;
76699;SDS011;70081;44.524;0.194;2023-05-13T23:54:35;5.30;;;3.73;;
